createdAt,value
2022-08-14T00:00:14.654Z,47.59
2022-08-14T00:03:04.284Z,47.72
2022-08-14T00:05:35.743Z,47.85
2022-08-14T00:08:05.548Z,47.90
2022-08-14T00:10:51.586Z,48.09
2022-08-14T00:13:29.212Z,48.27
2022-08-14T00:16:02.216Z,48.27
2022-08-14T00:19:06.456Z,48.36
2022-08-14T00:21:28.397Z,48.54
2022-08-14T00:24:02.530Z,48.52
2022-08-14T00:26:33.069Z,48.61
2022-08-14T00:29:04.558Z,48.77
2022-08-14T00:31:44.434Z,48.77
2022-08-14T00:34:36.141Z,48.91
2022-08-14T00:37:08.095Z,49.02
2022-08-14T00:39:42.592Z,49.04
2022-08-14T00:42:52.357Z,49.04
2022-08-14T00:45:04.130Z,49.15
2022-08-14T00:47:43.022Z,49.13
2022-08-14T00:50:21.939Z,49.27
2022-08-14T00:52:53.411Z,49.30
2022-08-14T00:55:24.363Z,49.40
2022-08-14T00:58:13.362Z,49.35
2022-08-14T01:00:51.110Z,49.42
2022-08-14T01:03:23.400Z,49.54
2022-08-14T01:05:56.425Z,49.54
2022-08-14T01:08:51.979Z,49.71
2022-08-14T01:11:24.318Z,49.78
2022-08-14T01:14:01.439Z,49.64
2022-08-14T01:16:34.991Z,49.88
2022-08-14T01:19:27.476Z,49.72
2022-08-14T01:21:57.851Z,49.94
2022-08-14T01:24:36.063Z,49.94
2022-08-14T01:27:07.061Z,50.04
2022-08-14T01:29:58.698Z,50.03
2022-08-14T01:32:37.620Z,50.12
2022-08-14T01:36:02.683Z,50.16
2022-08-14T01:38:06.018Z,50.27
2022-08-14T01:40:41.877Z,50.27
2022-08-14T01:43:18.565Z,50.35
2022-08-14T01:45:57.443Z,50.37
2022-08-14T01:48:44.777Z,50.55
2022-08-14T01:51:19.191Z,50.56
2022-08-14T01:54:01.603Z,50.71
2022-08-14T01:56:41.552Z,50.73
2022-08-14T01:59:21.918Z,50.74
2022-08-14T02:01:58.839Z,50.79
2022-08-14T02:04:54.840Z,50.92
2022-08-14T02:07:44.519Z,50.89
2022-08-14T02:10:26.269Z,50.95
2022-08-14T02:13:08.488Z,51.02
2022-08-14T02:15:41.454Z,51.06
2022-08-14T02:18:15.163Z,51.01
2022-08-14T02:20:51.264Z,51.07
2022-08-14T02:23:29.024Z,51.12
2022-08-14T02:26:24.847Z,51.15
2022-08-14T02:29:00.536Z,51.22
2022-08-14T02:31:42.149Z,51.36
2022-08-14T02:34:21.935Z,51.37
2022-08-14T02:37:03.638Z,51.50
2022-08-14T02:39:45.221Z,51.49
2022-08-14T02:42:23.631Z,51.54
2022-08-14T02:45:10.627Z,51.65
2022-08-14T02:47:47.488Z,51.58
2022-08-14T02:50:22.005Z,51.71
2022-08-14T02:53:03.324Z,51.77
2022-08-14T02:55:33.970Z,51.80
2022-08-14T02:58:06.157Z,51.84
2022-08-14T03:00:39.904Z,51.83
2022-08-14T03:03:12.206Z,51.70
2022-08-14T03:05:47.661Z,51.91
2022-08-14T03:08:21.520Z,51.90
2022-08-14T03:10:52.111Z,52.03
2022-08-14T03:13:24.703Z,52.00
2022-08-14T03:15:58.223Z,52.08
2022-08-14T03:18:32.814Z,52.12
2022-08-14T03:21:13.676Z,52.22
2022-08-14T03:23:45.781Z,52.33
2022-08-14T03:26:29.933Z,52.34
2022-08-14T03:29:01.565Z,52.30
2022-08-14T03:31:32.874Z,52.38
2022-08-14T03:34:05.255Z,52.42
2022-08-14T03:37:39.004Z,52.51
2022-08-14T03:39:31.906Z,52.58
2022-08-14T03:42:02.334Z,52.59
2022-08-14T03:45:19.644Z,52.78
2022-08-14T03:47:46.023Z,52.73
2022-08-14T03:50:27.560Z,52.85
2022-08-14T03:53:05.865Z,52.83
2022-08-14T03:55:38.793Z,52.90
2022-08-14T03:58:08.616Z,52.98
2022-08-14T04:00:42.997Z,52.92
2022-08-14T04:03:23.549Z,53.04
2022-08-14T04:05:57.429Z,53.01
2022-08-14T04:08:31.674Z,53.04
2022-08-14T04:11:07.834Z,53.04
2022-08-14T04:13:42.239Z,53.19
2022-08-14T04:16:19.162Z,53.12
2022-08-14T04:18:53.158Z,53.27
2022-08-14T04:21:26.191Z,53.18
2022-08-14T04:24:01.683Z,53.39
2022-08-14T04:26:42.303Z,53.45
2022-08-14T04:29:16.242Z,53.37
2022-08-14T04:32:57.772Z,53.33
2022-08-14T04:34:42.281Z,53.55
2022-08-14T04:37:40.257Z,53.60
2022-08-14T04:40:29.402Z,53.73
2022-08-14T04:43:17.666Z,53.79
2022-08-14T04:45:51.464Z,53.76
2022-08-14T04:48:38.854Z,53.60
2022-08-14T04:51:13.562Z,53.64
2022-08-14T04:53:46.812Z,53.58
2022-08-14T04:56:31.087Z,53.65
2022-08-14T04:59:10.679Z,53.60
2022-08-14T05:01:45.318Z,53.73
2022-08-14T05:04:20.914Z,54.00
2022-08-14T05:06:53.319Z,53.97
2022-08-14T05:09:29.214Z,53.69
2022-08-14T05:13:11.765Z,53.80
2022-08-14T05:14:55.786Z,53.82
2022-08-14T05:17:32.024Z,53.77
2022-08-14T05:21:54.402Z,53.63
2022-08-14T05:23:11.130Z,53.59
2022-08-14T05:25:41.700Z,53.52
2022-08-14T05:28:25.688Z,53.47
2022-08-14T05:31:08.241Z,53.53
2022-08-14T05:33:42.872Z,53.39
2022-08-14T05:36:27.161Z,53.45
2022-08-14T05:38:58.832Z,53.40
2022-08-14T05:41:52.441Z,53.23
2022-08-14T05:44:18.798Z,53.26
2022-08-14T05:46:49.613Z,53.25
2022-08-14T05:49:20.046Z,53.15
2022-08-14T05:51:52.009Z,53.04
2022-08-14T05:54:27.202Z,52.86
2022-08-14T05:56:58.513Z,52.71
2022-08-14T05:59:36.676Z,53.04
2022-08-14T06:02:11.789Z,52.62
2022-08-14T06:04:49.529Z,52.96
2022-08-14T06:07:18.730Z,52.84
2022-08-14T06:09:51.094Z,52.77
2022-08-14T06:12:31.590Z,52.74
2022-08-14T06:15:14.130Z,52.73
2022-08-14T06:17:46.115Z,52.65
2022-08-14T06:20:22.087Z,52.57
2022-08-14T06:22:53.001Z,52.78
2022-08-14T06:25:24.897Z,52.67
2022-08-14T06:27:55.690Z,52.50
2022-08-14T06:30:46.416Z,52.42
2022-08-14T06:33:18.780Z,52.38
2022-08-14T06:35:50.970Z,52.50
2022-08-14T06:38:24.010Z,52.20
2022-08-14T06:40:57.050Z,52.30
2022-08-14T06:43:31.864Z,51.96
2022-08-14T06:46:03.331Z,52.16
2022-08-14T06:48:37.157Z,51.84
2022-08-14T06:51:12.027Z,51.81
2022-08-14T06:53:41.341Z,51.38
2022-08-14T06:56:11.907Z,51.68
2022-08-14T06:58:42.887Z,51.35
2022-08-14T07:01:31.547Z,51.57
2022-08-14T07:04:23.721Z,51.73
2022-08-14T07:06:59.089Z,51.75
2022-08-14T07:09:44.372Z,51.42
2022-08-14T07:12:35.052Z,51.36
2022-08-14T07:15:11.701Z,51.31
2022-08-14T07:17:54.097Z,51.26
2022-08-14T07:20:31.341Z,51.15
2022-08-14T07:23:08.115Z,50.87
2022-08-14T07:25:42.262Z,50.73
2022-08-14T07:28:22.164Z,49.48
2022-08-14T07:31:05.232Z,48.62
2022-08-14T07:33:45.499Z,48.06
2022-08-14T07:36:27.545Z,47.18
2022-08-14T07:39:03.000Z,46.18
2022-08-14T07:41:42.658Z,46.01
2022-08-14T07:44:28.850Z,45.52
2022-08-14T07:47:05.202Z,44.47
2022-08-14T07:49:43.527Z,43.13
2022-08-14T07:52:14.167Z,43.01
2022-08-14T07:54:53.795Z,41.96
2022-08-14T07:57:25.162Z,41.26
2022-08-14T07:59:55.783Z,41.43
2022-08-14T08:02:29.549Z,41.01
2022-08-14T08:05:03.558Z,40.33
2022-08-14T08:07:40.811Z,40.30
2022-08-14T08:11:02.102Z,39.84
2022-08-14T08:13:29.346Z,39.07
2022-08-14T08:15:59.173Z,39.41
2022-08-14T08:18:38.214Z,38.64
2022-08-14T08:21:15.853Z,37.70
2022-08-14T08:23:55.239Z,36.89
2022-08-14T08:26:43.579Z,36.57
2022-08-14T08:29:30.204Z,35.61
2022-08-14T08:32:14.709Z,35.18
2022-08-14T08:34:51.942Z,33.58
2022-08-14T08:37:25.356Z,34.55
2022-08-14T08:40:06.509Z,34.66
2022-08-14T08:42:53.136Z,33.71
2022-08-14T08:45:27.775Z,33.29
2022-08-14T08:48:03.602Z,32.58
2022-08-14T08:50:53.282Z,31.98
2022-08-14T08:53:47.045Z,31.27
2022-08-14T08:57:21.630Z,30.93
2022-08-14T09:00:34.943Z,28.85
2022-08-14T09:03:27.594Z,29.11
2022-08-14T09:07:00.140Z,29.74
2022-08-14T09:10:34.055Z,28.21
2022-08-14T09:13:16.398Z,28.54
2022-08-14T09:16:18.424Z,28.23
2022-08-14T09:19:04.515Z,28.05
2022-08-14T09:21:46.798Z,27.44
2022-08-14T09:24:26.913Z,27.26
2022-08-14T09:27:41.374Z,27.03
2022-08-14T09:30:33.541Z,26.53
2022-08-14T09:33:25.472Z,26.53
2022-08-14T09:36:39.786Z,26.50
2022-08-14T09:40:25.814Z,25.52
2022-08-14T09:43:13.831Z,25.26
2022-08-14T09:46:04.329Z,23.85
2022-08-14T09:48:39.427Z,23.63
2022-08-14T09:51:25.508Z,23.59
2022-08-14T09:54:22.944Z,23.74
2022-08-14T09:56:57.420Z,23.56
2022-08-14T09:59:39.569Z,23.45
2022-08-14T10:02:31.781Z,23.90
2022-08-14T10:05:13.589Z,23.13
2022-08-14T10:07:53.843Z,23.13
2022-08-14T10:10:38.923Z,24.04
2022-08-14T10:13:43.230Z,24.70
2022-08-14T10:16:30.417Z,24.35
2022-08-14T10:19:28.383Z,24.53
2022-08-14T10:23:13.030Z,24.77
2022-08-14T10:24:55.742Z,24.40
2022-08-14T10:27:29.585Z,24.62
2022-08-14T10:30:02.455Z,24.62
2022-08-14T10:32:49.629Z,24.58
2022-08-14T10:35:27.715Z,24.35
2022-08-14T10:38:02.346Z,24.51
2022-08-14T10:40:44.742Z,24.81
2022-08-14T10:43:31.944Z,24.95
2022-08-14T10:47:38.041Z,24.65
2022-08-14T10:49:04.912Z,24.10
2022-08-14T10:51:39.722Z,24.32
2022-08-14T10:54:17.018Z,25.01
2022-08-14T10:57:38.471Z,25.10
2022-08-14T11:00:20.739Z,24.87
2022-08-14T11:03:19.704Z,25.65
2022-08-14T11:05:57.187Z,26.29
2022-08-14T11:08:34.781Z,25.91
2022-08-14T11:11:07.469Z,26.22
2022-08-14T11:13:44.524Z,26.91
2022-08-14T11:16:16.585Z,27.05
2022-08-14T11:18:55.956Z,26.97
2022-08-14T11:21:34.294Z,26.83
2022-08-14T11:24:55.159Z,26.86
2022-08-14T11:27:04.077Z,27.27
2022-08-14T11:30:00.380Z,27.55
2022-08-14T11:32:51.354Z,27.63
2022-08-14T11:35:37.003Z,27.83
2022-08-14T11:38:21.825Z,27.69
2022-08-14T11:40:52.493Z,28.25
2022-08-14T11:43:29.139Z,28.12
2022-08-14T11:46:03.650Z,28.34
2022-08-14T11:49:01.628Z,28.47
2022-08-14T11:51:52.885Z,28.90
2022-08-14T11:54:34.986Z,28.90
2022-08-14T11:57:06.413Z,29.34
2022-08-14T11:59:38.530Z,29.68
2022-08-14T12:03:01.630Z,29.70
2022-08-14T12:05:10.891Z,29.75
2022-08-14T12:07:50.416Z,29.79
2022-08-14T12:10:41.052Z,29.83
2022-08-14T12:13:22.587Z,29.76
2022-08-14T12:16:06.507Z,29.71
2022-08-14T12:18:45.855Z,29.93
2022-08-14T12:21:25.581Z,30.12
2022-08-14T12:24:08.479Z,30.26
2022-08-14T12:26:40.729Z,30.14
2022-08-14T12:29:16.726Z,29.92
2022-08-14T12:31:47.184Z,30.52
2022-08-14T12:34:20.518Z,30.51
2022-08-14T12:37:09.311Z,30.74
2022-08-14T12:39:40.278Z,31.23
2022-08-14T12:42:34.041Z,31.27
2022-08-14T12:45:04.905Z,31.25
2022-08-14T12:47:38.828Z,31.10
2022-08-14T12:50:21.733Z,30.86
2022-08-14T12:53:14.683Z,30.92
2022-08-14T12:56:22.545Z,31.39
2022-08-14T12:58:59.145Z,31.62
2022-08-14T13:01:59.324Z,31.72
2022-08-14T13:04:52.339Z,32.11
2022-08-14T13:07:26.829Z,31.99
2022-08-14T13:10:46.272Z,32.34
2022-08-14T13:13:15.673Z,32.42
2022-08-14T13:15:57.286Z,32.20
2022-08-14T13:18:31.337Z,32.68
2022-08-14T13:21:03.020Z,32.71
2022-08-14T13:23:37.370Z,33.02
2022-08-14T13:26:09.310Z,33.09
2022-08-14T13:29:02.072Z,33.21
2022-08-14T13:31:36.446Z,33.43
2022-08-14T13:34:06.662Z,33.32
2022-08-14T13:36:51.557Z,33.18
2022-08-14T13:39:30.246Z,33.38
2022-08-14T13:42:13.864Z,33.89
2022-08-14T13:44:45.611Z,34.25
2022-08-14T13:47:21.017Z,34.85
2022-08-14T13:49:57.539Z,35.19
2022-08-14T13:52:51.423Z,35.85
2022-08-14T13:55:31.566Z,35.87
2022-08-14T13:58:07.819Z,36.31
2022-08-14T14:00:59.942Z,36.80
2022-08-14T14:03:31.949Z,37.00
2022-08-14T14:06:03.878Z,37.47
2022-08-14T14:08:47.742Z,37.37
2022-08-14T14:11:25.282Z,37.52
2022-08-14T14:14:06.102Z,37.50
2022-08-14T14:16:47.514Z,37.81
2022-08-14T14:19:20.922Z,38.58
2022-08-14T14:21:55.797Z,38.62
2022-08-14T14:24:26.325Z,38.84
2022-08-14T14:27:30.080Z,38.80
2022-08-14T14:29:59.569Z,38.98
2022-08-14T14:32:32.334Z,38.93
2022-08-14T14:35:03.993Z,39.12
2022-08-14T14:37:37.902Z,39.36
2022-08-14T14:40:54.371Z,39.59
2022-08-14T14:43:11.867Z,39.93
2022-08-14T14:45:46.814Z,40.26
2022-08-14T14:48:28.406Z,40.77
2022-08-14T14:51:01.742Z,41.37
2022-08-14T14:53:39.225Z,42.11
2022-08-14T14:56:49.303Z,42.51
2022-08-14T14:59:01.562Z,42.54
2022-08-14T15:01:33.145Z,43.05
2022-08-14T15:04:08.071Z,42.97
2022-08-14T15:06:53.030Z,43.44
2022-08-14T15:09:23.856Z,43.09
2022-08-14T15:11:53.177Z,43.20
2022-08-14T15:14:54.677Z,43.44
2022-08-14T15:17:12.351Z,43.66
2022-08-14T15:19:42.576Z,43.58
2022-08-14T15:22:29.702Z,43.43
2022-08-14T15:25:01.134Z,43.87
2022-08-14T15:27:33.384Z,43.75
2022-08-14T15:30:06.894Z,44.17
2022-08-14T15:32:37.224Z,44.05
2022-08-14T15:35:08.512Z,44.00
2022-08-14T15:37:42.248Z,44.30
2022-08-14T15:40:16.215Z,44.40
2022-08-14T15:42:53.174Z,44.80
2022-08-14T15:45:24.312Z,44.88
2022-08-14T15:47:53.324Z,44.69
2022-08-14T15:50:29.555Z,44.98
2022-08-14T15:53:00.030Z,45.21
2022-08-14T15:55:31.364Z,45.55
2022-08-14T15:58:05.829Z,45.79
2022-08-14T16:00:55.984Z,46.13
2022-08-14T16:03:35.163Z,46.13
2022-08-14T16:06:15.591Z,46.14
2022-08-14T16:08:58.798Z,46.29
2022-08-14T16:11:32.693Z,46.96
2022-08-14T16:14:06.666Z,47.21
2022-08-14T16:16:51.431Z,47.54
2022-08-14T16:19:28.068Z,47.91
2022-08-14T16:22:57.367Z,47.58
2022-08-14T16:25:00.562Z,47.92
2022-08-14T16:27:40.991Z,48.39
2022-08-14T16:30:20.664Z,48.50
2022-08-14T16:32:59.344Z,48.95
2022-08-14T16:35:59.390Z,48.78
2022-08-14T16:38:46.387Z,48.77
2022-08-14T16:41:23.857Z,48.90
2022-08-14T16:44:02.365Z,49.02
2022-08-14T16:46:43.014Z,49.27
2022-08-14T16:49:18.794Z,50.02
2022-08-14T16:51:52.977Z,50.26
2022-08-14T16:54:35.085Z,50.30
2022-08-14T16:57:27.623Z,50.75
2022-08-14T17:00:07.241Z,50.47
2022-08-14T17:03:00.815Z,50.55
2022-08-14T17:05:43.299Z,50.97
2022-08-14T17:08:32.131Z,51.09
2022-08-14T17:11:10.760Z,50.96
2022-08-14T17:13:59.065Z,50.98
2022-08-14T17:16:38.764Z,51.26
2022-08-14T17:19:16.724Z,51.55
2022-08-14T17:21:51.454Z,51.66
2022-08-14T17:24:56.698Z,51.77
2022-08-14T17:27:18.172Z,52.02
2022-08-14T17:29:57.585Z,52.13
2022-08-14T17:32:55.485Z,52.16
2022-08-14T17:35:57.662Z,52.36
2022-08-14T17:38:39.535Z,52.42
2022-08-14T17:41:32.947Z,52.42
2022-08-14T17:44:33.851Z,52.24
2022-08-14T17:47:11.569Z,52.65
2022-08-14T17:49:51.792Z,52.65
2022-08-14T17:52:33.960Z,52.88
2022-08-14T17:55:12.751Z,53.19
2022-08-14T17:58:16.561Z,53.27
2022-08-14T18:01:04.692Z,53.43
2022-08-14T18:03:50.337Z,53.68
2022-08-14T18:06:39.431Z,53.79
2022-08-14T18:09:25.936Z,54.00
2022-08-14T18:12:03.882Z,53.99
2022-08-14T18:14:48.746Z,54.07
2022-08-14T18:17:23.047Z,54.04
2022-08-14T18:19:56.502Z,54.15
2022-08-14T18:22:32.110Z,54.26
2022-08-14T18:25:04.729Z,54.33
2022-08-14T18:27:51.600Z,54.50
2022-08-14T18:30:33.553Z,54.42
2022-08-14T18:33:22.882Z,54.50
2022-08-14T18:35:58.498Z,54.58
2022-08-14T18:38:46.215Z,54.73
2022-08-14T18:41:37.033Z,54.71
2022-08-14T18:44:10.634Z,54.82
2022-08-14T18:47:10.241Z,55.13
2022-08-14T18:49:55.659Z,55.19
2022-08-14T18:52:37.662Z,55.40
2022-08-14T18:55:20.953Z,55.46
2022-08-14T18:58:30.437Z,55.69
2022-08-14T19:01:06.217Z,55.78
2022-08-14T19:03:37.253Z,56.02
2022-08-14T19:06:10.753Z,56.08
2022-08-14T19:08:51.634Z,56.25
2022-08-14T19:11:33.237Z,56.30
2022-08-14T19:14:06.753Z,56.48
2022-08-14T19:16:42.787Z,56.58
2022-08-14T19:19:15.352Z,56.65
2022-08-14T19:22:00.009Z,56.79
2022-08-14T19:24:56.975Z,56.86
2022-08-14T19:27:37.720Z,57.14
2022-08-14T19:30:19.728Z,57.09
2022-08-14T19:32:57.046Z,57.20
2022-08-14T19:36:29.192Z,57.19
2022-08-14T19:39:04.331Z,57.39
2022-08-14T19:41:36.966Z,57.38
2022-08-14T19:44:12.582Z,57.49
2022-08-14T19:47:02.841Z,57.48
2022-08-14T19:50:24.593Z,57.60
2022-08-14T19:52:37.240Z,57.75
2022-08-14T19:55:17.581Z,57.67
2022-08-14T19:57:57.968Z,57.82
2022-08-14T20:00:31.079Z,57.75
2022-08-14T20:03:11.751Z,57.82
2022-08-14T20:05:45.891Z,58.04
2022-08-14T20:09:05.019Z,58.03
2022-08-14T20:12:00.406Z,58.09
2022-08-14T20:14:29.358Z,58.02
2022-08-14T20:17:05.979Z,58.13
2022-08-14T20:19:41.883Z,58.15
2022-08-14T20:22:35.049Z,58.36
2022-08-14T20:25:19.094Z,58.64
2022-08-14T20:27:59.671Z,58.69
2022-08-14T20:30:33.402Z,58.79
2022-08-14T20:33:10.592Z,58.80
2022-08-14T20:35:46.954Z,58.83
2022-08-14T20:38:30.759Z,58.71
2022-08-14T20:41:07.585Z,58.86
2022-08-14T20:44:00.936Z,59.03
2022-08-14T20:46:38.450Z,58.71
2022-08-14T20:49:20.246Z,58.90
2022-08-14T20:52:05.087Z,59.00
2022-08-14T20:54:53.357Z,58.99
2022-08-14T20:57:44.104Z,59.05
2022-08-14T21:00:56.486Z,59.44
2022-08-14T21:03:56.445Z,59.47
2022-08-14T21:07:23.361Z,59.56
2022-08-14T21:10:05.327Z,59.63
2022-08-14T21:12:35.272Z,59.55
2022-08-14T21:15:11.331Z,59.75
2022-08-14T21:17:46.326Z,59.72
2022-08-14T21:20:26.127Z,59.90
2022-08-14T21:23:00.516Z,60.11
2022-08-14T21:25:32.256Z,60.24
2022-08-14T21:28:09.056Z,60.20
2022-08-14T21:31:35.662Z,60.29
2022-08-14T21:34:31.553Z,60.62
2022-08-14T21:36:57.638Z,60.47
2022-08-14T21:39:32.159Z,60.43
2022-08-14T21:42:04.644Z,60.55
2022-08-14T21:44:42.601Z,60.45
2022-08-14T21:47:15.984Z,60.57
2022-08-14T21:49:48.363Z,60.38
2022-08-14T21:52:52.167Z,60.47
2022-08-14T21:55:23.272Z,60.77
2022-08-14T21:58:38.372Z,60.81
2022-08-14T22:00:46.887Z,61.00
2022-08-14T22:03:24.495Z,61.13
2022-08-14T22:05:57.228Z,61.02
2022-08-14T22:08:29.342Z,61.04
2022-08-14T22:11:00.861Z,60.98
2022-08-14T22:13:33.518Z,60.96
2022-08-14T22:17:01.755Z,61.11
2022-08-14T22:19:13.397Z,61.19
2022-08-14T22:21:46.621Z,61.36
2022-08-14T22:24:25.937Z,61.44
2022-08-14T22:27:08.584Z,61.31
2022-08-14T22:29:38.898Z,61.39
2022-08-14T22:32:11.268Z,61.52
2022-08-14T22:34:44.695Z,61.63
2022-08-14T22:37:17.777Z,61.79
2022-08-14T22:40:45.803Z,61.93
2022-08-14T22:42:39.244Z,62.03
2022-08-14T22:45:36.649Z,62.10
2022-08-14T22:48:12.867Z,62.28
2022-08-14T22:50:48.806Z,62.38
2022-08-14T22:53:18.984Z,62.32
2022-08-14T22:55:52.048Z,62.42
2022-08-14T22:58:31.716Z,62.29
2022-08-14T23:01:11.838Z,62.52
2022-08-14T23:03:45.571Z,62.71
2022-08-14T23:07:04.121Z,63.02
2022-08-14T23:09:36.285Z,63.20
2022-08-14T23:12:27.459Z,62.95
2022-08-14T23:15:04.651Z,63.19
2022-08-14T23:17:40.798Z,63.26
2022-08-14T23:20:18.727Z,63.12
2022-08-14T23:22:54.328Z,62.97
2022-08-14T23:25:58.032Z,62.97
2022-08-14T23:28:32.911Z,62.83
2022-08-14T23:31:15.098Z,62.81
2022-08-14T23:34:11.619Z,63.00
2022-08-14T23:36:53.053Z,63.24
2022-08-14T23:39:32.804Z,63.45
2022-08-14T23:42:08.747Z,63.48
2022-08-14T23:44:40.814Z,63.62
2022-08-14T23:47:26.741Z,63.71
2022-08-14T23:50:34.349Z,63.79
2022-08-14T23:53:07.232Z,63.71
2022-08-14T23:55:42.014Z,63.75
2022-08-14T23:58:29.148Z,63.80
